Time;durP1;ratioP1;P1;durP2;ratioP2;P2;SDS_P1;SDS_P2;PMS_P1;PMS_P2;Temp;Humidity;BMP_temperature;BMP_pressure;BME280_temperature;BME280_humidity;BME280_pressure;Samples;Min_cycle;Max_cycle;Signal;HPM_P1;HPM_P2
2022/04/14 00:00:17;;;;;;;;;;;;;;;19.18;100.00;99345.19;5070909;28;20062;-36
2022/04/14 00:02:42;;;;;;;;;;;;;;;19.55;100.00;99349.88;5070294;28;20345;-36
2022/04/14 00:05:07;;;;;;;;;;;;;;;20.13;100.00;99337.44;5068636;28;20075;-36
2022/04/14 00:07:33;;;;;;;;;;;;;;;20.33;100.00;99331.72;5072054;28;20003;-36
2022/04/14 00:09:58;;;;;;;;;;;;;;;20.31;100.00;99330.97;5072489;28;19954;-36
2022/04/14 00:12:23;;;;;;;;;;;;;;;19.81;100.00;99329.94;5069126;28;19958;-36
2022/04/14 00:14:48;;;;;;;;;;;;;;;18.52;100.00;99337.84;5074316;28;20450;-36
2022/04/14 00:17:14;;;;;;;;;;;;;;;18.96;100.00;99337.00;5074236;28;19968;-37
2022/04/14 00:19:42;;;;;;;;;;;;;;;18.90;100.00;99339.97;5070497;28;20576;-36
2022/04/14 00:22:08;;;;;;;;;;;;;;;18.62;100.00;99333.78;5068675;28;19920;-36
2022/04/14 00:24:33;;;;;;;;;;;;;;;18.57;100.00;99341.88;5069355;28;19969;-36
2022/04/14 00:26:58;;;;;;;;;;;;;;;18.35;100.00;99352.72;5069815;28;20381;-36
2022/04/14 00:29:24;;;;;;;;;;;;;;;18.23;100.00;99348.25;5071828;28;20631;-36
2022/04/14 00:31:49;;;;;;;;;;;;;;;18.62;100.00;99352.03;5068210;28;19920;-36
2022/04/14 00:34:14;;;;;;;;;;;;;;;18.29;100.00;99347.88;5073296;28;19968;-36
2022/04/14 00:36:40;;;;;;;;;;;;;;;18.07;100.00;99358.72;5068758;28;19923;-36
2022/04/14 00:39:05;;;;;;;;;;;;;;;18.22;100.00;99341.31;5070515;28;19975;-36
2022/04/14 00:41:30;;;;;;;;;;;;;;;19.14;100.00;99341.06;5069684;28;20039;-36
2022/04/14 00:43:55;;;;;;;;;;;;;;;19.60;100.00;99329.50;5071235;28;19969;-36
2022/04/14 00:46:21;;;;;;;;;;;;;;;19.74;100.00;99332.09;5070157;28;19928;-36
2022/04/14 00:48:47;;;;;;;;;;;;;;;20.09;100.00;99328.13;5051572;28;19920;-36
2022/04/14 00:51:12;;;;;;;;;;;;;;;20.21;100.00;99330.78;5067804;28;19968;-36
2022/04/14 00:53:39;;;;;;;;;;;;;;;20.20;100.00;99325.63;5071869;28;20371;-36
2022/04/14 00:56:05;;;;;;;;;;;;;;;19.40;100.00;99333.38;5070840;28;19919;-37
2022/04/14 00:58:30;;;;;;;;;;;;;;;19.27;100.00;99332.47;5069697;28;20317;-36
2022/04/14 01:00:55;;;;;;;;;;;;;;;19.17;100.00;99335.66;5068406;28;19946;-36
2022/04/14 01:03:21;;;;;;;;;;;;;;;19.07;100.00;99334.56;5066602;28;20031;-36
2022/04/14 01:05:46;;;;;;;;;;;;;;;18.99;100.00;99337.63;5071241;28;19919;-36
2022/04/14 01:08:16;;;;;;;;;;;;;;;19.15;100.00;99331.47;5067090;28;19923;-36
2022/04/14 01:10:41;;;;;;;;;;;;;;;19.39;100.00;99326.50;5070058;28;19927;-36
2022/04/14 01:13:07;;;;;;;;;;;;;;;18.99;100.00;99331.56;5070834;28;19924;-36
2022/04/14 01:15:32;;;;;;;;;;;;;;;19.39;100.00;99331.72;5069682;28;19916;-36
2022/04/14 01:17:57;;;;;;;;;;;;;;;19.46;100.00;99332.16;5070332;28;19920;-36
2022/04/14 01:20:23;;;;;;;;;;;;;;;19.79;100.00;99323.97;5069580;28;19936;-36
2022/04/14 01:22:54;;;;;;;;;;;;;;;19.94;100.00;99322.97;5066766;28;19920;-36
2022/04/14 01:25:19;;;;;;;;;;;;;;;19.94;100.00;99317.75;5068958;28;19923;-36
2022/04/14 01:27:45;;;;;;;;;;;;;;;19.97;100.00;99309.69;5071070;28;19920;-36
2022/04/14 01:30:10;;;;;;;;;;;;;;;19.82;100.00;99306.31;5067668;28;19916;-36
2022/04/14 01:32:35;;;;;;;;;;;;;;;19.41;100.00;99308.97;5069333;28;20006;-36
2022/04/14 01:35:01;;;;;;;;;;;;;;;19.42;100.00;99308.00;5066383;28;20231;-36
2022/04/14 01:37:26;;;;;;;;;;;;;;;19.62;100.00;99310.19;5071304;28;19928;-36
2022/04/14 01:39:51;;;;;;;;;;;;;;;19.90;100.00;99282.28;5065187;28;19926;-36
2022/04/14 01:42:16;;;;;;;;;;;;;;;19.61;100.00;99287.63;5068289;28;19972;-36
2022/04/14 01:44:41;;;;;;;;;;;;;;;19.69;100.00;99294.16;5067229;28;20509;-36
2022/04/14 01:47:07;;;;;;;;;;;;;;;19.68;100.00;99298.47;5066564;28;19923;-36
2022/04/14 01:49:32;;;;;;;;;;;;;;;19.62;100.00;99309.34;5069025;28;19916;-36
2022/04/14 01:51:57;;;;;;;;;;;;;;;19.97;100.00;99304.47;5067120;28;19921;-36
2022/04/14 01:54:23;;;;;;;;;;;;;;;20.07;100.00;99304.72;5069102;28;19920;-36
2022/04/14 01:56:49;;;;;;;;;;;;;;;19.94;100.00;99294.22;5069105;28;20463;-36
2022/04/14 01:59:14;;;;;;;;;;;;;;;20.04;100.00;99300.50;5068210;28;19921;-36
2022/04/14 02:01:39;;;;;;;;;;;;;;;19.78;100.00;99304.84;5066767;28;19930;-36
2022/04/14 02:04:07;;;;;;;;;;;;;;;19.62;100.00;99299.72;5068127;28;19920;-36
2022/04/14 02:06:32;;;;;;;;;;;;;;;19.68;100.00;99295.03;5064817;28;19920;-36
2022/04/14 02:08:57;;;;;;;;;;;;;;;19.76;100.00;99290.19;5067756;28;19916;-36
2022/04/14 02:11:23;;;;;;;;;;;;;;;19.91;100.00;99289.19;5069857;28;19917;-36
2022/04/14 02:13:48;;;;;;;;;;;;;;;19.67;100.00;99275.91;5066803;28;19917;-36
2022/04/14 02:16:13;;;;;;;;;;;;;;;18.83;100.00;99276.88;5067770;28;19920;-36
2022/04/14 02:18:38;;;;;;;;;;;;;;;18.92;100.00;99272.88;5067653;28;19934;-36
2022/04/14 02:21:04;;;;;;;;;;;;;;;19.58;100.00;99276.50;5068961;28;19920;-36
2022/04/14 02:23:29;;;;;;;;;;;;;;;19.94;100.00;99273.31;5067985;28;19916;-36
2022/04/14 02:25:54;;;;;;;;;;;;;;;19.84;100.00;99267.00;5067288;28;20343;-36
2022/04/14 02:28:20;;;;;;;;;;;;;;;19.85;100.00;99273.91;5066986;28;19962;-36
2022/04/14 02:30:45;;;;;;;;;;;;;;;19.04;100.00;99282.53;5068670;28;20372;-36
2022/04/14 02:33:11;;;;;;;;;;;;;;;19.03;100.00;99291.31;5069006;28;20365;-36
2022/04/14 02:35:36;;;;;;;;;;;;;;;18.66;100.00;99292.72;5067861;28;19920;-36
2022/04/14 02:38:01;;;;;;;;;;;;;;;18.89;100.00;99292.16;5067230;28;19913;-36
2022/04/14 02:40:26;;;;;;;;;;;;;;;19.27;100.00;99298.53;5064021;28;19924;-36
2022/04/14 02:42:53;;;;;;;;;;;;;;;19.40;100.00;99300.25;5066256;28;19987;-36
2022/04/14 02:45:19;;;;;;;;;;;;;;;19.79;100.00;99287.38;5067990;28;19927;-36
2022/04/14 02:47:44;;;;;;;;;;;;;;;19.73;100.00;99298.22;5066103;28;19916;-36
2022/04/14 02:50:09;;;;;;;;;;;;;;;19.68;100.00;99302.88;5067964;28;19920;-36
2022/04/14 02:52:35;;;;;;;;;;;;;;;19.23;100.00;99303.94;5067749;28;20003;-36
2022/04/14 02:55:00;;;;;;;;;;;;;;;18.97;100.00;99307.34;5069596;28;19920;-36
2022/04/14 02:57:25;;;;;;;;;;;;;;;18.54;100.00;99318.59;5067131;28;20007;-36
2022/04/14 02:59:50;;;;;;;;;;;;;;;18.43;100.00;99320.13;5068980;28;19948;-36
2022/04/14 03:02:16;;;;;;;;;;;;;;;18.16;100.00;99320.84;5067222;28;20295;-36
2022/04/14 03:04:41;;;;;;;;;;;;;;;18.35;100.00;99316.22;5068135;28;20061;-36
2022/04/14 03:07:06;;;;;;;;;;;;;;;18.41;100.00;99311.59;5071172;28;19929;-36
2022/04/14 03:09:32;;;;;;;;;;;;;;;17.82;100.00;99317.56;5067471;28;19920;-36
2022/04/14 03:11:57;;;;;;;;;;;;;;;18.29;100.00;99316.59;5067930;28;20388;-36
2022/04/14 03:14:22;;;;;;;;;;;;;;;19.07;100.00;99311.06;5066778;28;19924;-36
2022/04/14 03:16:47;;;;;;;;;;;;;;;19.27;100.00;99308.97;5068737;28;19916;-36
2022/04/14 03:19:13;;;;;;;;;;;;;;;19.42;100.00;99300.16;5066389;28;19924;-36
2022/04/14 03:21:38;;;;;;;;;;;;;;;19.33;100.00;99298.16;5069567;28;19935;-36
2022/04/14 03:24:03;;;;;;;;;;;;;;;19.54;100.00;99295.94;5068189;28;19931;-36
2022/04/14 03:26:28;;;;;;;;;;;;;;;19.42;100.00;99297.56;5067908;28;19920;-36
2022/04/14 03:28:53;;;;;;;;;;;;;;;19.34;100.00;99302.41;5069847;28;20030;-36
2022/04/14 03:31:19;;;;;;;;;;;;;;;19.02;100.00;99305.28;5066698;28;19975;-36
2022/04/14 03:33:44;;;;;;;;;;;;;;;19.02;100.00;99306.13;5070522;28;19984;-36
2022/04/14 03:36:09;;;;;;;;;;;;;;;18.93;100.00;99300.63;5072305;28;19935;-36
2022/04/14 03:38:34;;;;;;;;;;;;;;;19.15;100.00;99293.13;5072678;28;20483;-36
2022/04/14 03:41:02;;;;;;;;;;;;;;;19.32;100.00;99293.88;5070443;28;20611;-36
2022/04/14 03:43:28;;;;;;;;;;;;;;;19.42;100.00;99297.56;5071143;28;19940;-36
2022/04/14 03:45:53;;;;;;;;;;;;;;;19.36;100.00;99287.50;5070544;28;20030;-36
2022/04/14 03:48:18;;;;;;;;;;;;;;;19.41;100.00;99293.28;5071275;28;20405;-36
2022/04/14 03:50:43;;;;;;;;;;;;;;;19.46;100.00;99288.59;5067195;28;19920;-36
2022/04/14 03:53:09;;;;;;;;;;;;;;;19.28;100.00;99289.78;5068111;28;19920;-36
2022/04/14 03:55:34;;;;;;;;;;;;;;;19.08;100.00;99289.25;5070069;28;20531;-37
2022/04/14 03:57:59;;;;;;;;;;;;;;;18.88;100.00;99292.25;5068639;28;19920;-36
2022/04/14 04:00:25;;;;;;;;;;;;;;;19.03;100.00;99291.31;5071438;28;19939;-37
2022/04/14 04:02:51;;;;;;;;;;;;;;;19.14;100.00;99293.25;5069036;28;20370;-37
2022/04/14 04:05:16;;;;;;;;;;;;;;;19.21;100.00;99299.75;5073477;28;19916;-36
2022/04/14 04:07:41;;;;;;;;;;;;;;;19.38;100.00;99296.06;5073239;28;20301;-36
2022/04/14 04:10:07;;;;;;;;;;;;;;;19.43;100.00;99289.63;5070966;28;19916;-36
2022/04/14 04:12:32;;;;;;;;;;;;;;;19.32;100.00;99288.66;5073053;28;20046;-36
2022/04/14 04:14:57;;;;;;;;;;;;;;;19.57;100.00;99285.31;5073293;28;19959;-37
2022/04/14 04:17:22;;;;;;;;;;;;;;;19.55;100.00;99282.78;5070940;28;19966;-36
2022/04/14 04:19:48;;;;;;;;;;;;;;;19.48;100.00;99288.47;5071451;28;19935;-36
2022/04/14 04:22:13;;;;;;;;;;;;;;;19.39;100.00;99295.16;5067161;28;20054;-36
2022/04/14 04:24:38;;;;;;;;;;;;;;;19.43;100.00;99299.22;5068156;28;20602;-36
2022/04/14 04:27:04;;;;;;;;;;;;;;;19.20;100.00;99293.72;5069692;28;20444;-36
2022/04/14 04:29:29;;;;;;;;;;;;;;;19.02;100.00;99310.50;5072235;28;19963;-36
2022/04/14 04:31:54;;;;;;;;;;;;;;;19.24;100.00;99304.78;5068665;28;19925;-36
2022/04/14 04:34:20;;;;;;;;;;;;;;;19.32;100.00;99306.94;5069686;28;19920;-36
2022/04/14 04:36:45;;;;;;;;;;;;;;;19.34;100.00;99310.25;5069422;28;19932;-36
2022/04/14 04:39:10;;;;;;;;;;;;;;;19.26;100.00;99307.31;5070228;28;20552;-36
2022/04/14 04:41:35;;;;;;;;;;;;;;;19.01;100.00;99308.84;5072656;28;20073;-36
2022/04/14 04:44:01;;;;;;;;;;;;;;;18.33;100.00;99310.25;5069673;28;20411;-36
2022/04/14 04:46:26;;;;;;;;;;;;;;;18.80;100.00;99316.22;5069794;28;19916;-36
2022/04/14 04:48:51;;;;;;;;;;;;;;;18.92;100.00;99320.66;5068457;28;19916;-36
2022/04/14 04:51:17;;;;;;;;;;;;;;;19.08;100.00;99320.56;5068490;28;20463;-36
2022/04/14 04:53:42;;;;;;;;;;;;;;;19.29;100.00;99317.53;5069309;28;19920;-36
2022/04/14 04:56:07;;;;;;;;;;;;;;;19.05;100.00;99320.75;5067779;28;19920;-36
2022/04/14 04:58:32;;;;;;;;;;;;;;;19.22;100.00;99320.53;5067672;28;19968;-36
2022/04/14 05:00:58;;;;;;;;;;;;;;;19.04;100.00;99320.84;5069759;28;19917;-36
2022/04/14 05:03:23;;;;;;;;;;;;;;;18.96;100.00;99322.16;5066674;28;20557;-36
2022/04/14 05:05:49;;;;;;;;;;;;;;;19.06;100.00;99319.81;5066942;28;20341;-36
2022/04/14 05:08:15;;;;;;;;;;;;;;;19.14;100.00;99324.59;5067196;28;19959;-36
2022/04/14 05:10:40;;;;;;;;;;;;;;;19.05;100.00;99310.31;5065797;28;20490;-36
2022/04/14 05:13:05;;;;;;;;;;;;;;;18.68;100.00;99312.56;5070951;28;19942;-37
2022/04/14 05:15:31;;;;;;;;;;;;;;;18.81;100.00;99321.31;5068890;28;20350;-36
2022/04/14 05:17:56;;;;;;;;;;;;;;;19.16;100.00;99325.31;5069974;28;20492;-36
2022/04/14 05:20:21;;;;;;;;;;;;;;;19.20;100.00;99330.25;5069034;28;19920;-36
2022/04/14 05:22:46;;;;;;;;;;;;;;;19.29;100.00;99333.22;5066619;28;19927;-36
2022/04/14 05:25:12;;;;;;;;;;;;;;;18.72;100.00;99342.72;5068066;28;19970;-36
2022/04/14 05:27:37;;;;;;;;;;;;;;;17.54;100.00;99350.34;5067721;28;20600;-36
2022/04/14 05:30:03;;;;;;;;;;;;;;;18.02;100.00;99350.31;5071644;28;20398;-36
2022/04/14 05:32:28;;;;;;;;;;;;;;;18.68;100.00;99348.22;5067854;28;19916;-36
2022/04/14 05:34:53;;;;;;;;;;;;;;;18.27;100.00;99341.91;5067428;28;19924;-36
2022/04/14 05:37:18;;;;;;;;;;;;;;;18.81;100.00;99347.41;5067756;28;19912;-36
2022/04/14 05:39:44;;;;;;;;;;;;;;;18.95;100.00;99351.81;5068743;28;19920;-36
2022/04/14 05:42:09;;;;;;;;;;;;;;;19.10;100.00;99357.84;5067721;28;19970;-36
2022/04/14 05:44:34;;;;;;;;;;;;;;;19.25;100.00;99363.06;5068235;28;19920;-37
2022/04/14 05:46:59;;;;;;;;;;;;;;;19.16;100.00;99364.50;5068294;28;20030;-36
2022/04/14 05:49:25;;;;;;;;;;;;;;;19.10;100.00;99360.47;5066142;28;19920;-36
2022/04/14 05:51:50;;;;;;;;;;;;;;;18.87;100.00;99379.31;5068057;28;19951;-36
2022/04/14 05:54:15;;;;;;;;;;;;;;;17.83;100.00;99380.94;5066991;28;19920;-36
2022/04/14 05:56:40;;;;;;;;;;;;;;;17.34;100.00;99385.25;5067334;28;19924;-36
2022/04/14 05:59:06;;;;;;;;;;;;;;;17.76;100.00;99383.84;5067761;28;20422;-37
2022/04/14 06:01:31;;;;;;;;;;;;;;;18.64;100.00;99384.09;5068223;28;19923;-36
2022/04/14 06:03:56;;;;;;;;;;;;;;;18.46;100.00;99386.00;5068112;28;19912;-36
2022/04/14 06:06:22;;;;;;;;;;;;;;;18.07;100.00;99389.16;5066730;28;19917;-36
2022/04/14 06:08:47;;;;;;;;;;;;;;;18.56;100.00;99388.91;5067963;28;20585;-36
2022/04/14 06:11:12;;;;;;;;;;;;;;;18.91;100.00;99381.63;5069185;28;20280;-36
2022/04/14 06:13:37;;;;;;;;;;;;;;;18.97;100.00;99375.19;5068649;28;20058;-37
2022/04/14 06:16:03;;;;;;;;;;;;;;;18.77;100.00;99377.25;5068397;28;19952;-36
2022/04/14 06:18:28;;;;;;;;;;;;;;;19.01;100.00;99379.31;5066965;28;19974;-36
2022/04/14 06:20:54;;;;;;;;;;;;;;;18.92;100.00;99385.09;5067459;28;20369;-36
2022/04/14 06:23:19;;;;;;;;;;;;;;;19.15;100.00;99376.69;5066009;28;19973;-36
2022/04/14 06:25:51;;;;;;;;;;;;;;;19.10;100.00;99375.31;5069225;28;19926;-36
2022/04/14 06:28:17;;;;;;;;;;;;;;;17.92;100.00;99391.66;5066543;28;19920;-36
2022/04/14 06:30:43;;;;;;;;;;;;;;;16.58;100.00;99394.41;5066344;28;20026;-36
2022/04/14 06:33:08;;;;;;;;;;;;;;;16.62;100.00;99391.59;5064424;28;20018;-36
2022/04/14 06:35:34;;;;;;;;;;;;;;;17.29;100.00;99392.50;5068477;28;20750;-36
2022/04/14 06:37:59;;;;;;;;;;;;;;;18.01;100.00;99397.31;5069157;28;20538;-36
2022/04/14 06:40:24;;;;;;;;;;;;;;;17.47;100.00;99403.69;5066060;28;20832;-36
2022/04/14 06:42:50;;;;;;;;;;;;;;;17.27;100.00;99403.91;5067937;28;20509;-38
2022/04/14 06:45:15;;;;;;;;;;;;;;;17.26;100.00;99402.22;5065437;28;19946;-38
2022/04/14 06:47:40;;;;;;;;;;;;;;;17.93;100.00;99406.41;5066674;28;20941;-37
2022/04/14 06:50:06;;;;;;;;;;;;;;;18.59;100.00;99407.84;5067849;28;19912;-37
2022/04/14 06:52:32;;;;;;;;;;;;;;;18.93;100.00;99399.78;5064046;28;19934;-37
2022/04/14 06:54:57;;;;;;;;;;;;;;;18.27;100.00;99412.31;5067241;28;20808;-38
2022/04/14 06:57:22;;;;;;;;;;;;;;;17.90;100.00;99414.41;5065520;28;19921;-37
2022/04/14 06:59:47;;;;;;;;;;;;;;;18.32;100.00;99415.50;5066647;28;19935;-37
2022/04/14 07:02:13;;;;;;;;;;;;;;;17.51;100.00;99418.19;5065428;28;19923;-37
2022/04/14 07:04:38;;;;;;;;;;;;;;;17.42;100.00;99412.66;5069360;28;19920;-37
2022/04/14 07:07:03;;;;;;;;;;;;;;;18.41;100.00;99408.91;5063552;28;19919;-37
2022/04/14 07:09:32;;;;;;;;;;;;;;;17.67;100.00;99417.38;5069743;28;19916;-37
2022/04/14 07:11:59;;;;;;;;;;;;;;;17.77;100.00;99413.34;5068650;28;19916;-37
2022/04/14 07:14:25;;;;;;;;;;;;;;;18.86;100.00;99408.94;5071946;28;19920;-37
2022/04/14 07:16:50;;;;;;;;;;;;;;;18.68;100.00;99411.69;5072086;28;19921;-37
2022/04/14 07:19:15;;;;;;;;;;;;;;;18.50;100.00;99410.16;5065804;28;19924;-37
2022/04/14 07:21:40;;;;;;;;;;;;;;;17.80;100.00;99414.94;5074181;28;19923;-37
2022/04/14 07:24:06;;;;;;;;;;;;;;;17.51;100.00;99410.38;5071223;28;19916;-37
2022/04/14 07:26:31;;;;;;;;;;;;;;;17.55;100.00;99408.47;5070295;28;19921;-37
2022/04/14 07:28:56;;;;;;;;;;;;;;;17.22;100.00;99411.09;5070580;28;19928;-37
2022/04/14 07:31:21;;;;;;;;;;;;;;;17.39;100.00;99413.66;5070696;28;19921;-37
2022/04/14 07:33:47;;;;;;;;;;;;;;;17.63;100.00;99419.31;5068790;28;19947;-37
2022/04/14 07:36:18;;;;;;;;;;;;;;;17.63;100.00;99419.31;5072962;28;19923;-37
2022/04/14 07:38:43;;;;;;;;;;;;;;;17.64;100.00;99423.59;5070587;28;19920;-37
2022/04/14 07:41:08;;;;;;;;;;;;;;;17.69;100.00;99426.78;5073357;28;19920;-37
2022/04/14 07:43:34;;;;;;;;;;;;;;;18.14;100.00;99429.56;5070170;28;19916;-37
2022/04/14 07:45:59;;;;;;;;;;;;;;;17.87;100.00;99430.19;5068534;28;19920;-37
2022/04/14 07:48:24;;;;;;;;;;;;;;;18.01;100.00;99424.19;5068476;28;19924;-37
2022/04/14 07:50:49;;;;;;;;;;;;;;;19.33;100.00;99423.50;5069942;28;19989;-38
2022/04/14 07:53:15;;;;;;;;;;;;;;;18.95;100.00;99424.03;5071848;28;19931;-37
2022/04/14 07:55:40;;;;;;;;;;;;;;;19.09;100.00;99431.91;5070524;28;19931;-37
2022/04/14 07:58:09;;;;;;;;;;;;;;;18.44;100.00;99429.59;5070577;28;20384;-37
2022/04/14 08:00:35;;;;;;;;;;;;;;;18.04;100.00;99431.00;5071666;28;20561;-37
2022/04/14 08:03:01;;;;;;;;;;;;;;;18.37;100.00;99434.31;5069056;28;19913;-37
2022/04/14 08:05:26;;;;;;;;;;;;;;;17.98;100.00;99430.44;5067481;28;19965;-37
2022/04/14 08:07:52;;;;;;;;;;;;;;;17.55;100.00;99435.34;5070535;28;19974;-37
2022/04/14 08:10:17;;;;;;;;;;;;;;;16.98;100.00;99429.69;5069302;28;20402;-37
2022/04/14 08:12:42;;;;;;;;;;;;;;;16.88;100.00;99425.88;5068615;28;19966;-37
2022/04/14 08:15:08;;;;;;;;;;;;;;;17.28;100.00;99421.19;5069680;28;19932;-37
2022/04/14 08:17:33;;;;;;;;;;;;;;;17.66;100.00;99431.34;5073166;28;19916;-46
2022/04/14 08:19:58;;;;;;;;;;;;;;;17.68;100.00;99439.91;5067930;28;19924;-44
2022/04/14 08:22:24;;;;;;;;;;;;;;;17.80;100.00;99431.41;5071703;28;19926;-46
2022/04/14 08:24:50;;;;;;;;;;;;;;;17.67;100.00;99433.00;5070089;28;20655;-46
2022/04/14 08:27:15;;;;;;;;;;;;;;;18.10;100.00;99426.28;5067745;28;20369;-45
2022/04/14 08:29:40;;;;;;;;;;;;;;;17.72;100.00;99425.78;5071894;28;19923;-45
2022/04/14 08:32:09;;;;;;;;;;;;;;;17.91;100.00;99436.06;5070665;28;20478;-47
2022/04/14 08:34:34;;;;;;;;;;;;;;;18.74;100.00;99432.19;5068359;28;19939;-45
2022/04/14 08:36:59;;;;;;;;;;;;;;;19.23;100.00;99439.72;5070821;28;19920;-47
2022/04/14 08:39:25;;;;;;;;;;;;;;;18.86;100.00;99429.81;5069108;28;19932;-48
2022/04/14 08:41:53;;;;;;;;;;;;;;;19.61;100.00;99439.16;5069781;28;19939;-44
2022/04/14 08:44:18;;;;;;;;;;;;;;;18.60;100.00;99432.97;5064156;28;19920;-47
2022/04/14 08:46:43;;;;;;;;;;;;;;;17.87;100.00;99434.56;5063756;28;19939;-45
2022/04/14 08:49:09;;;;;;;;;;;;;;;18.04;100.00;99436.22;5060600;28;19931;-46
2022/04/14 08:51:36;;;;;;;;;;;;;;;18.75;100.00;99439.09;5063975;28;19928;-45
2022/04/14 08:54:02;;;;;;;;;;;;;;;18.26;100.00;99441.06;5066500;28;20495;-46
2022/04/14 08:56:27;;;;;;;;;;;;;;;18.31;100.00;99434.66;5068361;28;19964;-49
2022/04/14 08:58:54;;;;;;;;;;;;;;;18.34;100.00;99439.72;5066315;28;19925;-46
2022/04/14 09:01:19;;;;;;;;;;;;;;;18.18;100.00;99439.75;5068570;28;20061;-46
2022/04/14 09:03:44;;;;;;;;;;;;;;;18.93;100.00;99438.94;5069948;28;20018;-50
2022/04/14 09:06:10;;;;;;;;;;;;;;;18.05;100.00;99438.75;5068182;28;20043;-45
2022/04/14 09:08:35;;;;;;;;;;;;;;;18.37;100.00;99442.13;5068091;28;19994;-47
2022/04/14 09:11:01;;;;;;;;;;;;;;;18.36;100.00;99447.47;5067584;28;19927;-48
2022/04/14 09:13:26;;;;;;;;;;;;;;;18.60;100.00;99440.81;5067353;28;19917;-46
2022/04/14 09:15:52;;;;;;;;;;;;;;;19.25;100.00;99446.63;5068878;28;19930;-46
2022/04/14 09:18:17;;;;;;;;;;;;;;;19.84;100.00;99440.34;5068590;28;19943;-50
2022/04/14 09:20:43;;;;;;;;;;;;;;;19.43;100.00;99440.25;5049032;28;20005;-49
2022/04/14 09:23:21;;;;;;;;;;;;;;;19.54;100.00;99437.84;5066693;28;19916;-47
2022/04/14 09:25:48;;;;;;;;;;;;;;;19.25;100.00;99441.41;5066782;28;20026;-49
2022/04/14 09:28:14;;;;;;;;;;;;;;;18.50;100.00;99451.88;5070755;28;19916;-47
2022/04/14 09:30:40;;;;;;;;;;;;;;;19.16;100.00;99438.44;5068960;28;20455;-47
2022/04/14 09:33:05;;;;;;;;;;;;;;;18.40;100.00;99443.72;5066954;28;19924;-50
2022/04/14 09:35:31;;;;;;;;;;;;;;;18.21;100.00;99437.91;5068020;28;20351;-45
2022/04/14 09:38:02;;;;;;;;;;;;;;;18.46;100.00;99432.94;5066941;28;19913;-45
2022/04/14 09:40:29;;;;;;;;;;;;;;;19.12;100.00;99428.25;5068096;28;19945;-46
2022/04/14 09:42:54;;;;;;;;;;;;;;;19.46;100.00;99432.25;5064984;28;19924;-46
2022/04/14 09:45:19;;;;;;;;;;;;;;;19.21;100.00;99433.75;5069299;28;19919;-49
2022/04/14 09:47:45;;;;;;;;;;;;;;;19.44;100.00;99421.06;5062104;28;19920;-48
2022/04/14 09:50:24;;;;;;;;;;;;;;;19.18;100.00;99433.09;5061778;28;19912;-47
2022/04/14 09:53:08;;;;;;;;;;;;;;;18.69;100.00;99433.38;5064232;28;19920;-46
2022/04/14 09:55:37;;;;;;;;;;;;;;;19.53;100.00;99423.09;5062064;28;19913;-48
2022/04/14 09:58:16;;;;;;;;;;;;;;;20.96;100.00;99405.16;5062989;28;19916;-47
2022/04/14 10:00:47;;;;;;;;;;;;;;;20.05;100.00;99404.16;5062207;28;19920;-48
2022/04/14 10:03:21;;;;;;;;;;;;;;;21.27;100.00;99391.63;5059596;28;20236;-46
2022/04/14 10:05:47;;;;;;;;;;;;;;;21.74;100.00;99398.88;5043949;28;19916;-46
2022/04/14 10:08:13;;;;;;;;;;;;;;;20.98;100.00;99387.56;5062316;28;19947;-48
2022/04/14 10:10:39;;;;;;;;;;;;;;;22.45;100.00;99370.94;5064243;28;20144;-48
2022/04/14 10:13:05;;;;;;;;;;;;;;;20.98;100.00;99387.56;5061200;28;19921;-48
2022/04/14 10:15:34;;;;;;;;;;;;;;;21.26;100.00;99387.34;5067070;28;19954;-47
2022/04/14 10:18:01;;;;;;;;;;;;;;;20.79;100.00;99396.69;5066065;28;20430;-47
2022/04/14 10:20:26;;;;;;;;;;;;;;;20.47;100.00;99386.56;5059380;28;20007;-48
2022/04/14 10:22:51;;;;;;;;;;;;;;;19.55;100.00;99397.72;5060118;28;20017;-46
2022/04/14 10:25:17;;;;;;;;;;;;;;;19.76;100.00;99394.72;5063123;28;19963;-49
2022/04/14 10:27:42;;;;;;;;;;;;;;;20.56;100.00;99384.28;5062486;28;21216;-48
2022/04/14 10:30:07;;;;;;;;;;;;;;;21.05;100.00;99392.28;5060049;28;19924;-46
2022/04/14 10:32:33;;;;;;;;;;;;;;;20.64;100.00;99392.47;5056801;28;20019;-47
2022/04/14 10:34:59;;;;;;;;;;;;;;;20.88;100.00;99374.28;5057598;28;20006;-47
2022/04/14 10:37:28;;;;;;;;;;;;;;;20.40;100.00;99380.06;5057813;28;20011;-47
2022/04/14 10:39:54;;;;;;;;;;;;;;;19.44;100.00;99380.09;5065408;28;20525;-47
2022/04/14 10:42:22;;;;;;;;;;;;;;;20.32;100.00;99381.50;5064878;28;19955;-48
2022/04/14 10:44:48;;;;;;;;;;;;;;;21.15;100.00;99376.75;5066894;28;19926;-48
2022/04/14 10:47:35;;;;;;;;;;;;;;;22.85;100.00;99363.47;5070173;28;20567;-46
2022/04/14 10:50:01;;;;;;;;;;;;;;;21.89;100.00;99361.03;5060494;28;19963;-46
2022/04/14 10:52:26;;;;;;;;;;;;;;;21.68;100.00;99369.53;5059256;28;20007;-48
2022/04/14 10:54:54;;;;;;;;;;;;;;;21.50;100.00;99365.59;5066794;28;21043;-49
2022/04/14 10:57:34;;;;;;;;;;;;;;;20.86;100.00;99369.13;5066371;28;19966;-50
2022/04/14 11:00:00;;;;;;;;;;;;;;;21.04;100.00;99363.56;5061376;28;19932;-48
2022/04/14 11:02:25;;;;;;;;;;;;;;;21.06;100.00;99366.94;5055208;28;20483;-49
2022/04/14 11:04:51;;;;;;;;;;;;;;;21.21;100.00;99367.63;5055629;28;19939;-47
2022/04/14 11:07:23;;;;;;;;;;;;;;;22.02;100.00;99353.94;5067003;28;19921;-51
2022/04/14 11:09:52;;;;;;;;;;;;;;;22.06;100.00;99359.81;5067018;28;19916;-47
2022/04/14 11:12:18;;;;;;;;;;;;;;;21.53;100.00;99368.03;5057947;28;20342;-50
2022/04/14 11:14:45;;;;;;;;;;;;;;;21.37;100.00;99364.75;5057889;28;20003;-47
2022/04/14 11:17:29;;;;;;;;;;;;;;;21.27;100.00;99364.59;5064339;28;20365;-48
2022/04/14 11:19:55;;;;;;;;;;;;;;;20.48;100.00;99372.56;5066982;28;19993;-47
2022/04/14 11:22:20;;;;;;;;;;;;;;;21.35;100.00;99367.50;5067399;28;19916;-50
2022/04/14 11:24:45;;;;;;;;;;;;;;;21.17;100.00;99364.41;5060494;28;21094;-49
2022/04/14 11:27:18;;;;;;;;;;;;;;;20.85;100.00;99362.22;5065383;28;20375;-49
2022/04/14 11:29:43;;;;;;;;;;;;;;;20.72;100.00;99344.88;5061684;28;20018;-48
2022/04/14 11:32:09;;;;;;;;;;;;;;;20.88;100.00;99348.91;5059529;28;19970;-50
2022/04/14 11:34:35;;;;;;;;;;;;;;;21.45;100.00;99359.84;5063063;28;19988;-51
2022/04/14 11:37:03;;;;;;;;;;;;;;;21.61;100.00;99347.31;5063810;28;19955;-48
2022/04/14 11:39:29;;;;;;;;;;;;;;;22.09;100.00;99335.97;5065485;28;19927;-47
2022/04/14 11:41:55;;;;;;;;;;;;;;;21.77;100.00;99335.72;5059020;28;19935;-48
2022/04/14 11:44:30;;;;;;;;;;;;;;;20.69;100.00;99345.91;5065296;28;19924;-50
2022/04/14 11:46:56;;;;;;;;;;;;;;;20.64;100.00;99341.00;5066150;28;19920;-44
2022/04/14 11:49:22;;;;;;;;;;;;;;;20.54;100.00;99339.06;5065099;28;19986;-45
2022/04/14 11:51:48;;;;;;;;;;;;;;;21.26;100.00;99344.59;5068411;28;20452;-45
2022/04/14 11:54:33;;;;;;;;;;;;;;;20.44;100.00;99351.94;5063712;28;19942;-47
2022/04/14 11:57:06;;;;;;;;;;;;;;;20.92;100.00;99360.03;5061528;28;19920;-47
2022/04/14 11:59:33;;;;;;;;;;;;;;;20.78;100.00;99371.44;5067712;28;20006;-48
2022/04/14 12:02:02;;;;;;;;;;;;;;;21.53;100.00;99357.53;5061870;28;19927;-47
2022/04/14 12:04:27;;;;;;;;;;;;;;;20.06;100.00;99377.06;5065230;28;19920;-47
2022/04/14 12:06:56;;;;;;;;;;;;;;;20.89;100.00;99361.09;5043623;28;19974;-45
2022/04/14 12:09:22;;;;;;;;;;;;;;;20.37;100.00;99363.75;5045033;28;19932;-48
2022/04/14 12:11:47;;;;;;;;;;;;;;;20.47;100.00;99365.63;5061745;28;19955;-47
2022/04/14 12:14:14;;;;;;;;;;;;;;;21.09;100.00;99356.22;5064354;28;20006;-49
2022/04/14 12:16:49;;;;;;;;;;;;;;;20.39;100.00;99356.63;5063553;28;19997;-49
2022/04/14 12:19:14;;;;;;;;;;;;;;;20.89;100.00;99370.69;5065155;28;19920;-51
2022/04/14 12:21:40;;;;;;;;;;;;;;;19.95;100.00;99363.84;5065627;28;20795;-48
2022/04/14 12:24:05;;;;;;;;;;;;;;;19.97;100.00;99372.44;5062763;28;19920;-47
2022/04/14 12:26:32;;;;;;;;;;;;;;;19.98;100.00;99368.88;5063035;28;19985;-47
2022/04/14 12:28:58;;;;;;;;;;;;;;;20.77;100.00;99361.91;5067249;28;19973;-47